sensor_id;sensor_type;location;lat;lon;timestamp;temperature;humidity
16655;DHT22;8441;51.344;7.022;2023-07-16T00:02:04;19.30;99.90
16655;DHT22;8441;51.344;7.022;2023-07-16T00:04:32;19.20;99.90
16655;DHT22;8441;51.344;7.022;2023-07-16T00:06:59;19.20;99.90
16655;DHT22;8441;51.344;7.022;2023-07-16T00:09:27;19.30;99.90
16655;DHT22;8441;51.344;7.022;2023-07-16T00:11:54;19.30;99.90
16655;DHT22;8441;51.344;7.022;2023-07-16T00:14:21;19.30;99.90
16655;DHT22;8441;51.344;7.022;2023-07-16T00:16:48;19.30;99.90
16655;DHT22;8441;51.344;7.022;2023-07-16T00:19:17;19.30;99.90
16655;DHT22;8441;51.344;7.022;2023-07-16T00:21:44;19.30;99.90
16655;DHT22;8441;51.344;7.022;2023-07-16T00:24:11;19.40;99.90
16655;DHT22;8441;51.344;7.022;2023-07-16T00:26:38;19.40;99.90
16655;DHT22;8441;51.344;7.022;2023-07-16T00:29:05;19.30;99.90
16655;DHT22;8441;51.344;7.022;2023-07-16T00:31:33;19.30;99.90
16655;DHT22;8441;51.344;7.022;2023-07-16T00:34:00;19.30;99.90
16655;DHT22;8441;51.344;7.022;2023-07-16T00:36:29;19.30;99.90
16655;DHT22;8441;51.344;7.022;2023-07-16T00:38:56;19.30;99.90
16655;DHT22;8441;51.344;7.022;2023-07-16T00:41:23;19.30;99.90
16655;DHT22;8441;51.344;7.022;2023-07-16T00:43:50;19.30;99.90
16655;DHT22;8441;51.344;7.022;2023-07-16T00:46:20;19.30;99.90
16655;DHT22;8441;51.344;7.022;2023-07-16T00:48:47;19.20;99.90
16655;DHT22;8441;51.344;7.022;2023-07-16T00:51:14;19.20;99.90
16655;DHT22;8441;51.344;7.022;2023-07-16T00:53:43;19.00;99.90
16655;DHT22;8441;51.344;7.022;2023-07-16T00:56:14;18.90;99.90
16655;DHT22;8441;51.344;7.022;2023-07-16T00:58:42;18.70;99.90
16655;DHT22;8441;51.344;7.022;2023-07-16T01:01:09;18.60;99.90
16655;DHT22;8441;51.344;7.022;2023-07-16T01:03:37;18.60;99.90
16655;DHT22;8441;51.344;7.022;2023-07-16T01:06:08;18.50;99.90
16655;DHT22;8441;51.344;7.022;2023-07-16T01:08:45;18.30;99.90
16655;DHT22;8441;51.344;7.022;2023-07-16T01:11:14;18.20;99.90
16655;DHT22;8441;51.344;7.022;2023-07-16T01:13:41;18.20;99.90
16655;DHT22;8441;51.344;7.022;2023-07-16T01:16:18;18.10;99.90
16655;DHT22;8441;51.344;7.022;2023-07-16T01:18:46;18.10;99.90
16655;DHT22;8441;51.344;7.022;2023-07-16T01:21:13;18.00;99.90
16655;DHT22;8441;51.344;7.022;2023-07-16T01:24:00;17.90;99.90
16655;DHT22;8441;51.344;7.022;2023-07-16T01:26:46;17.90;99.90
16655;DHT22;8441;51.344;7.022;2023-07-16T01:29:34;17.90;99.90
16655;DHT22;8441;51.344;7.022;2023-07-16T01:32:04;17.90;99.90
16655;DHT22;8441;51.344;7.022;2023-07-16T01:34:34;17.90;99.90
16655;DHT22;8441;51.344;7.022;2023-07-16T01:37:02;17.90;99.90
16655;DHT22;8441;51.344;7.022;2023-07-16T01:39:30;17.90;99.90
16655;DHT22;8441;51.344;7.022;2023-07-16T01:41:58;17.90;99.90
16655;DHT22;8441;51.344;7.022;2023-07-16T01:44:25;17.90;99.90
16655;DHT22;8441;51.344;7.022;2023-07-16T01:47:10;18.10;99.90
16655;DHT22;8441;51.344;7.022;2023-07-16T01:49:38;18.10;99.90
16655;DHT22;8441;51.344;7.022;2023-07-16T01:52:07;18.10;99.90
16655;DHT22;8441;51.344;7.022;2023-07-16T01:54:34;18.20;99.90
16655;DHT22;8441;51.344;7.022;2023-07-16T01:57:02;18.30;99.90
16655;DHT22;8441;51.344;7.022;2023-07-16T01:59:29;18.30;99.90
16655;DHT22;8441;51.344;7.022;2023-07-16T02:01:58;18.40;99.90
16655;DHT22;8441;51.344;7.022;2023-07-16T02:04:25;18.40;99.90
16655;DHT22;8441;51.344;7.022;2023-07-16T02:06:53;18.50;99.90
16655;DHT22;8441;51.344;7.022;2023-07-16T02:09:20;18.60;99.90
16655;DHT22;8441;51.344;7.022;2023-07-16T02:11:47;18.60;99.90
16655;DHT22;8441;51.344;7.022;2023-07-16T02:14:14;18.70;99.90
16655;DHT22;8441;51.344;7.022;2023-07-16T02:16:42;18.70;99.90
16655;DHT22;8441;51.344;7.022;2023-07-16T02:19:10;18.70;99.90
16655;DHT22;8441;51.344;7.022;2023-07-16T02:21:37;18.70;99.90
16655;DHT22;8441;51.344;7.022;2023-07-16T02:24:05;18.70;99.90
16655;DHT22;8441;51.344;7.022;2023-07-16T02:26:34;18.70;99.90
16655;DHT22;8441;51.344;7.022;2023-07-16T02:29:01;18.70;99.90
16655;DHT22;8441;51.344;7.022;2023-07-16T02:31:28;18.70;99.90
16655;DHT22;8441;51.344;7.022;2023-07-16T02:33:55;18.60;99.90
16655;DHT22;8441;51.344;7.022;2023-07-16T02:36:24;18.70;99.90
16655;DHT22;8441;51.344;7.022;2023-07-16T02:38:51;18.70;99.90
16655;DHT22;8441;51.344;7.022;2023-07-16T02:41:18;18.60;99.90
16655;DHT22;8441;51.344;7.022;2023-07-16T02:43:46;18.60;99.90
16655;DHT22;8441;51.344;7.022;2023-07-16T02:46:13;18.60;99.90
16655;DHT22;8441;51.344;7.022;2023-07-16T02:48:40;18.60;99.90
16655;DHT22;8441;51.344;7.022;2023-07-16T02:51:07;18.60;99.90
16655;DHT22;8441;51.344;7.022;2023-07-16T02:53:36;18.40;99.90
16655;DHT22;8441;51.344;7.022;2023-07-16T02:56:04;18.20;99.90
16655;DHT22;8441;51.344;7.022;2023-07-16T02:58:31;18.20;99.90
16655;DHT22;8441;51.344;7.022;2023-07-16T03:00:58;18.00;99.90
16655;DHT22;8441;51.344;7.022;2023-07-16T03:03:25;17.90;99.90
16655;DHT22;8441;51.344;7.022;2023-07-16T03:05:52;17.70;99.90
16655;DHT22;8441;51.344;7.022;2023-07-16T03:08:19;17.70;99.90
16655;DHT22;8441;51.344;7.022;2023-07-16T03:10:48;17.60;99.90
16655;DHT22;8441;51.344;7.022;2023-07-16T03:13:15;17.50;99.90
16655;DHT22;8441;51.344;7.022;2023-07-16T03:15:43;17.50;99.90
16655;DHT22;8441;51.344;7.022;2023-07-16T03:18:10;17.40;99.90
16655;DHT22;8441;51.344;7.022;2023-07-16T03:20:37;17.30;99.90
16655;DHT22;8441;51.344;7.022;2023-07-16T03:23:04;17.30;99.90
16655;DHT22;8441;51.344;7.022;2023-07-16T03:25:31;17.20;99.90
16655;DHT22;8441;51.344;7.022;2023-07-16T03:28:00;17.20;99.90
16655;DHT22;8441;51.344;7.022;2023-07-16T03:30:27;17.20;99.90
16655;DHT22;8441;51.344;7.022;2023-07-16T03:32:54;17.10;99.90
16655;DHT22;8441;51.344;7.022;2023-07-16T03:35:21;17.10;99.90
16655;DHT22;8441;51.344;7.022;2023-07-16T03:37:48;17.10;99.90
16655;DHT22;8441;51.344;7.022;2023-07-16T03:40:16;17.00;99.90
16655;DHT22;8441;51.344;7.022;2023-07-16T03:42:44;17.00;99.90
16655;DHT22;8441;51.344;7.022;2023-07-16T03:45:13;17.10;99.90
16655;DHT22;8441;51.344;7.022;2023-07-16T03:47:40;17.10;99.90
16655;DHT22;8441;51.344;7.022;2023-07-16T03:50:08;17.10;99.90
16655;DHT22;8441;51.344;7.022;2023-07-16T03:52:36;17.00;99.90
16655;DHT22;8441;51.344;7.022;2023-07-16T03:55:04;17.00;99.90
16655;DHT22;8441;51.344;7.022;2023-07-16T03:57:31;16.90;99.90
16655;DHT22;8441;51.344;7.022;2023-07-16T03:59:58;16.90;99.90
16655;DHT22;8441;51.344;7.022;2023-07-16T04:02:27;16.90;99.90
16655;DHT22;8441;51.344;7.022;2023-07-16T04:04:54;16.90;99.90
16655;DHT22;8441;51.344;7.022;2023-07-16T04:07:21;16.90;99.90
16655;DHT22;8441;51.344;7.022;2023-07-16T04:09:48;16.90;99.90
16655;DHT22;8441;51.344;7.022;2023-07-16T04:12:15;17.00;99.90
16655;DHT22;8441;51.344;7.022;2023-07-16T04:14:43;16.90;99.90
16655;DHT22;8441;51.344;7.022;2023-07-16T04:17:10;16.90;99.90
16655;DHT22;8441;51.344;7.022;2023-07-16T04:19:38;16.90;99.90
16655;DHT22;8441;51.344;7.022;2023-07-16T04:22:06;16.90;99.90
16655;DHT22;8441;51.344;7.022;2023-07-16T04:24:33;16.90;99.90
16655;DHT22;8441;51.344;7.022;2023-07-16T04:27:00;16.90;99.90
16655;DHT22;8441;51.344;7.022;2023-07-16T04:29:27;17.00;99.90
16655;DHT22;8441;51.344;7.022;2023-07-16T04:31:54;17.00;99.90
16655;DHT22;8441;51.344;7.022;2023-07-16T04:34:22;17.00;99.90
16655;DHT22;8441;51.344;7.022;2023-07-16T04:36:51;16.90;99.90
16655;DHT22;8441;51.344;7.022;2023-07-16T04:39:18;16.90;99.90
16655;DHT22;8441;51.344;7.022;2023-07-16T04:41:45;17.00;99.90
16655;DHT22;8441;51.344;7.022;2023-07-16T04:44:12;17.00;99.90
16655;DHT22;8441;51.344;7.022;2023-07-16T04:46:39;17.00;99.90
16655;DHT22;8441;51.344;7.022;2023-07-16T04:49:06;16.90;99.90
16655;DHT22;8441;51.344;7.022;2023-07-16T04:51:33;17.00;99.90
16655;DHT22;8441;51.344;7.022;2023-07-16T04:54:02;17.00;99.90
16655;DHT22;8441;51.344;7.022;2023-07-16T04:56:29;17.10;99.90
16655;DHT22;8441;51.344;7.022;2023-07-16T04:58:56;17.10;99.90
16655;DHT22;8441;51.344;7.022;2023-07-16T05:01:24;17.20;99.90
16655;DHT22;8441;51.344;7.022;2023-07-16T05:03:52;17.10;99.90
16655;DHT22;8441;51.344;7.022;2023-07-16T05:06:20;17.10;99.90
16655;DHT22;8441;51.344;7.022;2023-07-16T05:08:47;17.20;99.90
16655;DHT22;8441;51.344;7.022;2023-07-16T05:11:15;17.30;99.90
16655;DHT22;8441;51.344;7.022;2023-07-16T05:13:42;17.30;99.90
16655;DHT22;8441;51.344;7.022;2023-07-16T05:16:09;17.30;99.90
16655;DHT22;8441;51.344;7.022;2023-07-16T05:18:36;17.30;99.90
16655;DHT22;8441;51.344;7.022;2023-07-16T05:21:04;17.30;99.90
16655;DHT22;8441;51.344;7.022;2023-07-16T05:23:31;17.30;99.90
16655;DHT22;8441;51.344;7.022;2023-07-16T05:25:58;17.40;99.90
16655;DHT22;8441;51.344;7.022;2023-07-16T05:28:27;17.30;99.90
16655;DHT22;8441;51.344;7.022;2023-07-16T05:31:00;17.30;99.90
16655;DHT22;8441;51.344;7.022;2023-07-16T05:33:28;17.40;99.90
16655;DHT22;8441;51.344;7.022;2023-07-16T05:35:55;17.40;99.90
16655;DHT22;8441;51.344;7.022;2023-07-16T05:38:22;17.40;99.90
16655;DHT22;8441;51.344;7.022;2023-07-16T05:40:50;17.40;99.90
16655;DHT22;8441;51.344;7.022;2023-07-16T05:43:17;17.50;99.90
16655;DHT22;8441;51.344;7.022;2023-07-16T05:45:45;17.50;99.90
16655;DHT22;8441;51.344;7.022;2023-07-16T05:48:12;17.50;99.90
16655;DHT22;8441;51.344;7.022;2023-07-16T05:50:39;17.50;99.90
16655;DHT22;8441;51.344;7.022;2023-07-16T05:53:07;17.50;99.90
16655;DHT22;8441;51.344;7.022;2023-07-16T05:55:34;17.60;99.90
16655;DHT22;8441;51.344;7.022;2023-07-16T05:58:01;17.60;99.90
16655;DHT22;8441;51.344;7.022;2023-07-16T06:00:28;17.70;99.90
16655;DHT22;8441;51.344;7.022;2023-07-16T06:02:57;17.70;99.90
16655;DHT22;8441;51.344;7.022;2023-07-16T06:05:24;17.80;99.90
16655;DHT22;8441;51.344;7.022;2023-07-16T06:07:52;17.80;99.90
16655;DHT22;8441;51.344;7.022;2023-07-16T06:10:19;17.90;99.90
16655;DHT22;8441;51.344;7.022;2023-07-16T06:12:46;18.00;99.90
16655;DHT22;8441;51.344;7.022;2023-07-16T06:15:13;18.00;99.90
16655;DHT22;8441;51.344;7.022;2023-07-16T06:17:40;18.10;99.90
16655;DHT22;8441;51.344;7.022;2023-07-16T06:20:10;18.30;99.90
16655;DHT22;8441;51.344;7.022;2023-07-16T06:22:37;18.70;99.90
16655;DHT22;8441;51.344;7.022;2023-07-16T06:25:05;19.20;99.90
16655;DHT22;8441;51.344;7.022;2023-07-16T06:27:32;19.40;99.90
16655;DHT22;8441;51.344;7.022;2023-07-16T06:29:59;19.60;99.90
16655;DHT22;8441;51.344;7.022;2023-07-16T06:32:26;19.80;99.90
16655;DHT22;8441;51.344;7.022;2023-07-16T06:34:53;19.70;99.90
16655;DHT22;8441;51.344;7.022;2023-07-16T06:37:22;19.60;99.90
16655;DHT22;8441;51.344;7.022;2023-07-16T06:39:51;19.60;99.90
16655;DHT22;8441;51.344;7.022;2023-07-16T06:42:18;19.40;99.90
16655;DHT22;8441;51.344;7.022;2023-07-16T06:44:46;19.20;99.90
16655;DHT22;8441;51.344;7.022;2023-07-16T06:47:13;19.20;99.90
16655;DHT22;8441;51.344;7.022;2023-07-16T06:49:41;19.10;99.90
16655;DHT22;8441;51.344;7.022;2023-07-16T06:52:08;19.00;99.90
16655;DHT22;8441;51.344;7.022;2023-07-16T06:54:36;18.90;99.90
16655;DHT22;8441;51.344;7.022;2023-07-16T06:57:07;18.80;99.90
16655;DHT22;8441;51.344;7.022;2023-07-16T06:59:34;18.80;99.90
16655;DHT22;8441;51.344;7.022;2023-07-16T07:02:01;18.90;99.90
16655;DHT22;8441;51.344;7.022;2023-07-16T07:04:28;18.80;99.90
16655;DHT22;8441;51.344;7.022;2023-07-16T07:06:55;18.80;99.90
16655;DHT22;8441;51.344;7.022;2023-07-16T07:09:22;18.80;99.90
16655;DHT22;8441;51.344;7.022;2023-07-16T07:11:51;18.80;99.90
16655;DHT22;8441;51.344;7.022;2023-07-16T07:14:18;18.80;99.90
16655;DHT22;8441;51.344;7.022;2023-07-16T07:16:46;18.90;99.90
16655;DHT22;8441;51.344;7.022;2023-07-16T07:19:13;18.80;99.90
16655;DHT22;8441;51.344;7.022;2023-07-16T07:21:40;18.80;99.90
16655;DHT22;8441;51.344;7.022;2023-07-16T07:24:07;18.80;99.90
16655;DHT22;8441;51.344;7.022;2023-07-16T07:26:34;18.80;99.90
16655;DHT22;8441;51.344;7.022;2023-07-16T07:29:03;18.90;99.90
16655;DHT22;8441;51.344;7.022;2023-07-16T07:31:30;18.90;99.90
16655;DHT22;8441;51.344;7.022;2023-07-16T07:33:57;19.00;99.90
16655;DHT22;8441;51.344;7.022;2023-07-16T07:36:25;19.10;99.90
16655;DHT22;8441;51.344;7.022;2023-07-16T07:38:52;19.30;99.90
16655;DHT22;8441;51.344;7.022;2023-07-16T07:41:19;19.60;99.90
16655;DHT22;8441;51.344;7.022;2023-07-16T07:43:46;19.80;99.90
16655;DHT22;8441;51.344;7.022;2023-07-16T07:46:15;20.00;99.90
16655;DHT22;8441;51.344;7.022;2023-07-16T07:48:42;20.20;99.90
16655;DHT22;8441;51.344;7.022;2023-07-16T07:51:09;20.30;99.90
16655;DHT22;8441;51.344;7.022;2023-07-16T07:53:36;20.50;99.90
16655;DHT22;8441;51.344;7.022;2023-07-16T07:56:04;20.70;99.90
16655;DHT22;8441;51.344;7.022;2023-07-16T07:58:31;20.90;99.90
16655;DHT22;8441;51.344;7.022;2023-07-16T08:01:04;21.00;99.90
16655;DHT22;8441;51.344;7.022;2023-07-16T08:03:33;21.00;99.90
16655;DHT22;8441;51.344;7.022;2023-07-16T08:06:00;21.00;99.90
16655;DHT22;8441;51.344;7.022;2023-07-16T08:08:28;21.10;99.90
16655;DHT22;8441;51.344;7.022;2023-07-16T08:10:55;21.10;99.90
16655;DHT22;8441;51.344;7.022;2023-07-16T08:13:22;21.10;99.90
16655;DHT22;8441;51.344;7.022;2023-07-16T08:15:49;21.20;99.90
16655;DHT22;8441;51.344;7.022;2023-07-16T08:18:16;21.20;99.90
16655;DHT22;8441;51.344;7.022;2023-07-16T08:20:46;21.10;99.90
16655;DHT22;8441;51.344;7.022;2023-07-16T08:23:13;21.10;99.90
16655;DHT22;8441;51.344;7.022;2023-07-16T08:25:41;21.30;99.90
16655;DHT22;8441;51.344;7.022;2023-07-16T08:28:09;21.60;99.90
16655;DHT22;8441;51.344;7.022;2023-07-16T08:30:37;21.80;99.90
16655;DHT22;8441;51.344;7.022;2023-07-16T08:33:04;21.80;99.90
16655;DHT22;8441;51.344;7.022;2023-07-16T08:35:31;21.80;99.90
16655;DHT22;8441;51.344;7.022;2023-07-16T08:38:00;21.80;99.90
16655;DHT22;8441;51.344;7.022;2023-07-16T08:40:27;22.10;99.90
16655;DHT22;8441;51.344;7.022;2023-07-16T08:42:56;22.40;99.90
16655;DHT22;8441;51.344;7.022;2023-07-16T08:45:25;22.50;99.90
16655;DHT22;8441;51.344;7.022;2023-07-16T08:47:55;22.80;99.90
16655;DHT22;8441;51.344;7.022;2023-07-16T08:50:24;22.90;99.90
16655;DHT22;8441;51.344;7.022;2023-07-16T08:52:53;23.00;99.90
16655;DHT22;8441;51.344;7.022;2023-07-16T08:55:22;23.20;99.90
16655;DHT22;8441;51.344;7.022;2023-07-16T08:57:49;23.30;99.90
16655;DHT22;8441;51.344;7.022;2023-07-16T09:00:17;23.20;99.90
16655;DHT22;8441;51.344;7.022;2023-07-16T09:02:45;23.30;99.90
16655;DHT22;8441;51.344;7.022;2023-07-16T09:05:14;23.00;99.90
16655;DHT22;8441;51.344;7.022;2023-07-16T09:07:42;23.10;99.90
16655;DHT22;8441;51.344;7.022;2023-07-16T09:10:11;23.30;99.90
16655;DHT22;8441;51.344;7.022;2023-07-16T09:12:43;23.10;99.90
16655;DHT22;8441;51.344;7.022;2023-07-16T09:15:11;22.60;99.90
16655;DHT22;8441;51.344;7.022;2023-07-16T09:17:39;22.50;99.90
16655;DHT22;8441;51.344;7.022;2023-07-16T09:20:08;22.60;99.90
16655;DHT22;8441;51.344;7.022;2023-07-16T09:22:35;22.70;99.90
16655;DHT22;8441;51.344;7.022;2023-07-16T09:25:04;22.70;99.90
16655;DHT22;8441;51.344;7.022;2023-07-16T09:27:31;22.70;99.90
16655;DHT22;8441;51.344;7.022;2023-07-16T09:30:00;22.60;99.90
16655;DHT22;8441;51.344;7.022;2023-07-16T09:32:33;22.60;99.90
16655;DHT22;8441;51.344;7.022;2023-07-16T09:35:05;22.50;99.90
16655;DHT22;8441;51.344;7.022;2023-07-16T09:37:33;22.40;99.90
16655;DHT22;8441;51.344;7.022;2023-07-16T09:40:01;22.50;99.90
16655;DHT22;8441;51.344;7.022;2023-07-16T09:42:29;22.80;99.90
16655;DHT22;8441;51.344;7.022;2023-07-16T09:44:58;22.90;99.90
16655;DHT22;8441;51.344;7.022;2023-07-16T09:47:27;22.80;99.90
16655;DHT22;8441;51.344;7.022;2023-07-16T09:49:54;22.70;99.90
16655;DHT22;8441;51.344;7.022;2023-07-16T09:52:21;22.90;99.90
16655;DHT22;8441;51.344;7.022;2023-07-16T09:54:50;22.90;99.90
16655;DHT22;8441;51.344;7.022;2023-07-16T09:57:19;22.90;99.90
16655;DHT22;8441;51.344;7.022;2023-07-16T09:59:47;23.00;99.90
16655;DHT22;8441;51.344;7.022;2023-07-16T10:02:16;23.40;99.90
16655;DHT22;8441;51.344;7.022;2023-07-16T10:04:45;23.50;99.90
16655;DHT22;8441;51.344;7.022;2023-07-16T10:07:19;23.60;99.90
16655;DHT22;8441;51.344;7.022;2023-07-16T10:09:52;23.80;99.90
16655;DHT22;8441;51.344;7.022;2023-07-16T10:12:21;23.70;99.90
16655;DHT22;8441;51.344;7.022;2023-07-16T10:14:49;23.80;99.90
16655;DHT22;8441;51.344;7.022;2023-07-16T10:17:18;24.20;99.90
16655;DHT22;8441;51.344;7.022;2023-07-16T10:19:57;24.40;99.90
16655;DHT22;8441;51.344;7.022;2023-07-16T10:22:37;24.70;99.90
16655;DHT22;8441;51.344;7.022;2023-07-16T10:25:22;24.60;99.90
16655;DHT22;8441;51.344;7.022;2023-07-16T10:27:50;24.50;99.90
16655;DHT22;8441;51.344;7.022;2023-07-16T10:30:17;24.40;99.90
16655;DHT22;8441;51.344;7.022;2023-07-16T10:32:45;24.50;99.90
16655;DHT22;8441;51.344;7.022;2023-07-16T10:35:14;24.60;99.90
16655;DHT22;8441;51.344;7.022;2023-07-16T10:37:41;24.70;99.90
16655;DHT22;8441;51.344;7.022;2023-07-16T10:40:11;24.40;99.90
16655;DHT22;8441;51.344;7.022;2023-07-16T10:42:40;24.40;99.90
16655;DHT22;8441;51.344;7.022;2023-07-16T10:45:09;24.10;99.90
16655;DHT22;8441;51.344;7.022;2023-07-16T10:47:37;24.20;99.90
16655;DHT22;8441;51.344;7.022;2023-07-16T10:50:07;24.00;99.90
16655;DHT22;8441;51.344;7.022;2023-07-16T10:52:36;24.10;99.90
16655;DHT22;8441;51.344;7.022;2023-07-16T10:55:05;23.70;99.90
16655;DHT22;8441;51.344;7.022;2023-07-16T10:57:32;23.90;99.90
16655;DHT22;8441;51.344;7.022;2023-07-16T10:59:59;24.10;99.90
16655;DHT22;8441;51.344;7.022;2023-07-16T11:02:27;24.40;99.90
16655;DHT22;8441;51.344;7.022;2023-07-16T11:04:54;24.90;99.90
16655;DHT22;8441;51.344;7.022;2023-07-16T11:07:23;24.50;99.90
16655;DHT22;8441;51.344;7.022;2023-07-16T11:09:53;24.20;99.90
16655;DHT22;8441;51.344;7.022;2023-07-16T11:12:21;24.10;99.90
16655;DHT22;8441;51.344;7.022;2023-07-16T11:14:51;24.20;99.90
16655;DHT22;8441;51.344;7.022;2023-07-16T11:17:19;24.40;99.90
16655;DHT22;8441;51.344;7.022;2023-07-16T11:19:49;24.40;99.90
16655;DHT22;8441;51.344;7.022;2023-07-16T11:22:17;24.50;99.90
16655;DHT22;8441;51.344;7.022;2023-07-16T11:24:46;24.50;99.90
16655;DHT22;8441;51.344;7.022;2023-07-16T11:27:15;24.70;99.90
16655;DHT22;8441;51.344;7.022;2023-07-16T11:29:46;24.80;99.90
16655;DHT22;8441;51.344;7.022;2023-07-16T11:32:25;24.60;99.90
16655;DHT22;8441;51.344;7.022;2023-07-16T11:34:53;24.20;99.90
16655;DHT22;8441;51.344;7.022;2023-07-16T11:37:20;24.20;99.90
16655;DHT22;8441;51.344;7.022;2023-07-16T11:39:48;24.30;99.90
16655;DHT22;8441;51.344;7.022;2023-07-16T11:42:22;24.50;99.90
16655;DHT22;8441;51.344;7.022;2023-07-16T11:44:50;24.50;99.90
16655;DHT22;8441;51.344;7.022;2023-07-16T11:47:17;24.20;99.90
16655;DHT22;8441;51.344;7.022;2023-07-16T11:49:45;24.50;99.90
16655;DHT22;8441;51.344;7.022;2023-07-16T11:52:12;24.40;99.90
16655;DHT22;8441;51.344;7.022;2023-07-16T11:54:39;24.30;99.90
16655;DHT22;8441;51.344;7.022;2023-07-16T11:57:06;24.80;99.90
16655;DHT22;8441;51.344;7.022;2023-07-16T11:59:35;25.30;99.90
16655;DHT22;8441;51.344;7.022;2023-07-16T12:02:02;25.20;99.90
16655;DHT22;8441;51.344;7.022;2023-07-16T12:04:29;25.00;99.90
16655;DHT22;8441;51.344;7.022;2023-07-16T12:06:57;24.90;99.90
16655;DHT22;8441;51.344;7.022;2023-07-16T12:09:24;24.50;99.90
16655;DHT22;8441;51.344;7.022;2023-07-16T12:11:51;24.40;99.90
16655;DHT22;8441;51.344;7.022;2023-07-16T12:14:18;24.60;99.90
16655;DHT22;8441;51.344;7.022;2023-07-16T12:16:47;24.60;99.90
16655;DHT22;8441;51.344;7.022;2023-07-16T12:19:14;24.40;99.90
16655;DHT22;8441;51.344;7.022;2023-07-16T12:21:41;24.20;99.90
16655;DHT22;8441;51.344;7.022;2023-07-16T12:24:08;24.20;99.90
16655;DHT22;8441;51.344;7.022;2023-07-16T12:26:36;24.30;99.90
16655;DHT22;8441;51.344;7.022;2023-07-16T12:29:03;24.70;99.90
16655;DHT22;8441;51.344;7.022;2023-07-16T12:31:30;25.00;99.90
16655;DHT22;8441;51.344;7.022;2023-07-16T12:34:00;24.70;99.90
16655;DHT22;8441;51.344;7.022;2023-07-16T12:36:28;24.90;99.90
16655;DHT22;8441;51.344;7.022;2023-07-16T12:38:56;25.20;99.90
16655;DHT22;8441;51.344;7.022;2023-07-16T12:41:23;24.90;99.90
16655;DHT22;8441;51.344;7.022;2023-07-16T12:43:50;24.80;99.90
16655;DHT22;8441;51.344;7.022;2023-07-16T12:46:17;25.00;99.90
16655;DHT22;8441;51.344;7.022;2023-07-16T12:48:44;25.00;99.90
16655;DHT22;8441;51.344;7.022;2023-07-16T12:51:13;24.80;99.90
16655;DHT22;8441;51.344;7.022;2023-07-16T12:53:40;25.00;99.90
16655;DHT22;8441;51.344;7.022;2023-07-16T12:56:09;25.00;99.90
16655;DHT22;8441;51.344;7.022;2023-07-16T12:58:36;25.10;99.90
16655;DHT22;8441;51.344;7.022;2023-07-16T13:01:03;25.30;99.90
16655;DHT22;8441;51.344;7.022;2023-07-16T13:03:30;25.40;99.90
16655;DHT22;8441;51.344;7.022;2023-07-16T13:05:58;25.50;99.80
16655;DHT22;8441;51.344;7.022;2023-07-16T13:08:26;25.70;98.90
16655;DHT22;8441;51.344;7.022;2023-07-16T13:10:53;25.70;99.40
16655;DHT22;8441;51.344;7.022;2023-07-16T13:13:21;25.70;99.60
16655;DHT22;8441;51.344;7.022;2023-07-16T13:15:48;25.80;99.50
16655;DHT22;8441;51.344;7.022;2023-07-16T13:18:15;25.70;99.40
16655;DHT22;8441;51.344;7.022;2023-07-16T13:20:42;25.50;99.20
16655;DHT22;8441;51.344;7.022;2023-07-16T13:23:09;25.40;98.90
16655;DHT22;8441;51.344;7.022;2023-07-16T13:25:38;25.30;99.10
16655;DHT22;8441;51.344;7.022;2023-07-16T13:28:05;25.20;99.40
16655;DHT22;8441;51.344;7.022;2023-07-16T13:30:32;25.40;98.70
16655;DHT22;8441;51.344;7.022;2023-07-16T13:33:00;25.50;98.80
16655;DHT22;8441;51.344;7.022;2023-07-16T13:35:27;25.50;98.90
16655;DHT22;8441;51.344;7.022;2023-07-16T13:37:54;25.50;98.90
16655;DHT22;8441;51.344;7.022;2023-07-16T13:40:22;25.60;98.90
16655;DHT22;8441;51.344;7.022;2023-07-16T13:42:50;25.70;98.60
16655;DHT22;8441;51.344;7.022;2023-07-16T13:45:19;25.70;98.70
16655;DHT22;8441;51.344;7.022;2023-07-16T13:47:46;25.50;98.90
16655;DHT22;8441;51.344;7.022;2023-07-16T13:50:13;25.30;99.50
16655;DHT22;8441;51.344;7.022;2023-07-16T13:52:40;25.50;98.90
16655;DHT22;8441;51.344;7.022;2023-07-16T13:55:08;25.20;98.70
16655;DHT22;8441;51.344;7.022;2023-07-16T13:57:35;25.00;98.90
16655;DHT22;8441;51.344;7.022;2023-07-16T14:00:04;25.20;99.50
16655;DHT22;8441;51.344;7.022;2023-07-16T14:02:35;25.00;98.80
16655;DHT22;8441;51.344;7.022;2023-07-16T14:05:03;25.10;99.50
16655;DHT22;8441;51.344;7.022;2023-07-16T14:07:30;25.50;99.30
16655;DHT22;8441;51.344;7.022;2023-07-16T14:09:57;25.60;99.20
16655;DHT22;8441;51.344;7.022;2023-07-16T14:12:24;25.50;99.80
16655;DHT22;8441;51.344;7.022;2023-07-16T14:14:51;25.70;99.90
16655;DHT22;8441;51.344;7.022;2023-07-16T14:17:20;25.60;99.90
16655;DHT22;8441;51.344;7.022;2023-07-16T14:19:47;25.50;99.90
16655;DHT22;8441;51.344;7.022;2023-07-16T14:22:14;25.30;99.80
16655;DHT22;8441;51.344;7.022;2023-07-16T14:24:42;25.50;99.50
16655;DHT22;8441;51.344;7.022;2023-07-16T14:27:09;25.40;99.90
16655;DHT22;8441;51.344;7.022;2023-07-16T14:29:38;25.40;99.90
16655;DHT22;8441;51.344;7.022;2023-07-16T14:32:06;25.50;99.90
16655;DHT22;8441;51.344;7.022;2023-07-16T14:34:34;25.60;99.30
16655;DHT22;8441;51.344;7.022;2023-07-16T14:37:02;25.60;99.90
16655;DHT22;8441;51.344;7.022;2023-07-16T14:39:30;25.70;99.80
16655;DHT22;8441;51.344;7.022;2023-07-16T14:41:57;25.70;99.40
16655;DHT22;8441;51.344;7.022;2023-07-16T14:44:28;25.60;99.80
16655;DHT22;8441;51.344;7.022;2023-07-16T14:46:56;25.60;99.40
16655;DHT22;8441;51.344;7.022;2023-07-16T14:49:23;25.70;98.90
16655;DHT22;8441;51.344;7.022;2023-07-16T14:51:52;25.90;99.40
16655;DHT22;8441;51.344;7.022;2023-07-16T14:54:19;25.80;99.20
16655;DHT22;8441;51.344;7.022;2023-07-16T14:56:46;25.50;98.10
16655;DHT22;8441;51.344;7.022;2023-07-16T14:59:13;25.10;98.60
16655;DHT22;8441;51.344;7.022;2023-07-16T15:01:40;25.20;98.90
16655;DHT22;8441;51.344;7.022;2023-07-16T15:04:07;25.50;98.90
16655;DHT22;8441;51.344;7.022;2023-07-16T15:06:35;25.60;98.20
16655;DHT22;8441;51.344;7.022;2023-07-16T15:09:04;25.90;98.30
16655;DHT22;8441;51.344;7.022;2023-07-16T15:11:31;26.10;98.20
16655;DHT22;8441;51.344;7.022;2023-07-16T15:13:59;25.90;97.70
16655;DHT22;8441;51.344;7.022;2023-07-16T15:16:27;25.50;98.00
16655;DHT22;8441;51.344;7.022;2023-07-16T15:18:55;25.10;98.50
16655;DHT22;8441;51.344;7.022;2023-07-16T15:21:22;24.80;98.60
16655;DHT22;8441;51.344;7.022;2023-07-16T15:23:49;24.70;99.20
16655;DHT22;8441;51.344;7.022;2023-07-16T15:26:17;24.70;99.30
16655;DHT22;8441;51.344;7.022;2023-07-16T15:28:44;24.40;99.30
16655;DHT22;8441;51.344;7.022;2023-07-16T15:31:12;24.10;99.40
16655;DHT22;8441;51.344;7.022;2023-07-16T15:33:39;23.90;99.50
16655;DHT22;8441;51.344;7.022;2023-07-16T15:36:06;23.90;99.70
16655;DHT22;8441;51.344;7.022;2023-07-16T15:38:33;23.90;99.90
16655;DHT22;8441;51.344;7.022;2023-07-16T15:41:00;24.20;99.90
16655;DHT22;8441;51.344;7.022;2023-07-16T15:43:29;24.60;99.90
16655;DHT22;8441;51.344;7.022;2023-07-16T15:45:56;25.10;99.30
16655;DHT22;8441;51.344;7.022;2023-07-16T15:48:23;25.50;99.50
16655;DHT22;8441;51.344;7.022;2023-07-16T15:50:56;25.80;98.50